sensor_id;sensor_type;location;lat;lon;timestamp;pressure;altitude;pressure_sealevel;temperature;humidity
40171;BME280;37650;52.790;18.268;2023-02-23T00:01:18;100946.33;;;-1.95;90.35
40171;BME280;37650;52.790;18.268;2023-02-23T00:04:40;100942.66;;;-1.97;91.14
40171;BME280;37650;52.790;18.268;2023-02-23T00:08:02;100939.91;;;-1.98;90.93
40171;BME280;37650;52.790;18.268;2023-02-23T00:11:24;100935.10;;;-1.98;90.90
40171;BME280;37650;52.790;18.268;2023-02-23T00:14:46;100932.34;;;-1.98;91.43
40171;BME280;37650;52.790;18.268;2023-02-23T00:18:08;100925.77;;;-2.00;91.42
40171;BME280;37650;52.790;18.268;2023-02-23T00:21:30;100924.36;;;-2.00;91.88
40171;BME280;37650;52.790;18.268;2023-02-23T00:24:55;100917.84;;;-2.00;92.35
40171;BME280;37650;52.790;18.268;2023-02-23T00:28:17;100918.00;;;-2.01;92.47
40171;BME280;37650;52.790;18.268;2023-02-23T00:31:38;100920.02;;;-2.02;92.96
40171;BME280;37650;52.790;18.268;2023-02-23T00:34:59;100920.70;;;-2.03;92.97
40171;BME280;37650;52.790;18.268;2023-02-23T00:38:20;100922.59;;;-2.04;93.42
40171;BME280;37650;52.790;18.268;2023-02-23T00:41:42;100923.98;;;-2.03;93.54
40171;BME280;37650;52.790;18.268;2023-02-23T00:45:04;100922.93;;;-2.03;93.29
40171;BME280;37650;52.790;18.268;2023-02-23T00:48:28;100922.90;;;-2.05;93.86
40171;BME280;37650;52.790;18.268;2023-02-23T00:51:49;100922.73;;;-2.05;94.08
40171;BME280;37650;52.790;18.268;2023-02-23T00:55:12;100920.48;;;-2.05;93.96
40171;BME280;37650;52.790;18.268;2023-02-23T00:58:35;100918.36;;;-2.08;94.28
40171;BME280;37650;52.790;18.268;2023-02-23T01:01:57;100912.30;;;-2.10;94.33
40171;BME280;37650;52.790;18.268;2023-02-23T01:05:18;100910.92;;;-2.11;94.41
40171;BME280;37650;52.790;18.268;2023-02-23T01:08:46;100912.59;;;-2.12;94.73
40171;BME280;37650;52.790;18.268;2023-02-23T01:12:10;100915.13;;;-2.14;95.12
40171;BME280;37650;52.790;18.268;2023-02-23T01:15:31;100914.02;;;-2.17;95.05
40171;BME280;37650;52.790;18.268;2023-02-23T01:18:59;100916.39;;;-2.19;94.94
40171;BME280;37650;52.790;18.268;2023-02-23T01:22:21;100910.00;;;-2.21;95.15
40171;BME280;37650;52.790;18.268;2023-02-23T01:25:43;100907.90;;;-2.22;95.41
40171;BME280;37650;52.790;18.268;2023-02-23T01:29:15;100910.09;;;-2.23;95.53
40171;BME280;37650;52.790;18.268;2023-02-23T01:32:37;100909.90;;;-2.25;95.54
40171;BME280;37650;52.790;18.268;2023-02-23T01:35:59;100904.38;;;-2.27;95.36
40171;BME280;37650;52.790;18.268;2023-02-23T01:39:20;100902.27;;;-2.27;95.73
40171;BME280;37650;52.790;18.268;2023-02-23T01:42:44;100900.37;;;-2.28;95.83
40171;BME280;37650;52.790;18.268;2023-02-23T01:46:05;100895.52;;;-2.30;96.16
40171;BME280;37650;52.790;18.268;2023-02-23T01:49:28;100889.67;;;-2.31;96.66
40171;BME280;37650;52.790;18.268;2023-02-23T01:52:51;100885.90;;;-2.30;96.86
40171;BME280;37650;52.790;18.268;2023-02-23T01:56:17;100881.92;;;-2.31;96.98
40171;BME280;37650;52.790;18.268;2023-02-23T01:59:43;100881.54;;;-2.33;97.17
40171;BME280;37650;52.790;18.268;2023-02-23T02:03:08;100876.49;;;-2.35;97.44
40171;BME280;37650;52.790;18.268;2023-02-23T02:06:33;100872.36;;;-2.35;97.65
40171;BME280;37650;52.790;18.268;2023-02-23T02:09:57;100873.72;;;-2.36;97.66
40171;BME280;37650;52.790;18.268;2023-02-23T02:13:31;100872.99;;;-2.38;98.34
40171;BME280;37650;52.790;18.268;2023-02-23T02:20:55;100864.02;;;-2.39;98.80
40171;BME280;37650;52.790;18.268;2023-02-23T02:28:26;100856.09;;;-2.41;99.32
40171;BME280;37650;52.790;18.268;2023-02-23T02:36:20;100850.77;;;-2.41;99.69
40171;BME280;37650;52.790;18.268;2023-02-23T02:47:08;100839.08;;;-2.41;100.00
40171;BME280;37650;52.790;18.268;2023-02-23T02:50:53;100837.86;;;-2.42;100.00
40171;BME280;37650;52.790;18.268;2023-02-23T02:54:29;100835.63;;;-2.41;100.00
40171;BME280;37650;52.790;18.268;2023-02-23T02:57:56;100829.64;;;-2.40;100.00
40171;BME280;37650;52.790;18.268;2023-02-23T03:01:18;100829.13;;;-2.40;100.00
40171;BME280;37650;52.790;18.268;2023-02-23T03:05:00;100827.21;;;-2.42;100.00
40171;BME280;37650;52.790;18.268;2023-02-23T03:09:22;100828.55;;;-2.43;100.00
40171;BME280;37650;52.790;18.268;2023-02-23T03:21:18;100825.05;;;-2.46;100.00
40171;BME280;37650;52.790;18.268;2023-02-23T03:25:48;100822.98;;;-2.45;100.00
40171;BME280;37650;52.790;18.268;2023-02-23T03:29:53;100819.70;;;-2.47;100.00
40171;BME280;37650;52.790;18.268;2023-02-23T03:33:43;100821.86;;;-2.49;100.00
40171;BME280;37650;52.790;18.268;2023-02-23T03:37:30;100823.23;;;-2.50;100.00
40171;BME280;37650;52.790;18.268;2023-02-23T03:41:15;100815.84;;;-2.50;100.00
40171;BME280;37650;52.790;18.268;2023-02-23T03:44:58;100814.61;;;-2.52;100.00
40171;BME280;37650;52.790;18.268;2023-02-23T03:48:42;100814.91;;;-2.54;100.00
40171;BME280;37650;52.790;18.268;2023-02-23T03:52:38;100818.55;;;-2.53;100.00
40171;BME280;37650;52.790;18.268;2023-02-23T03:56:22;100815.11;;;-2.52;100.00
40171;BME280;37650;52.790;18.268;2023-02-23T04:00:08;100812.33;;;-2.54;100.00
40171;BME280;37650;52.790;18.268;2023-02-23T04:03:55;100806.52;;;-2.53;100.00
40171;BME280;37650;52.790;18.268;2023-02-23T04:07:37;100808.23;;;-2.53;100.00
40171;BME280;37650;52.790;18.268;2023-02-23T04:11:30;100807.71;;;-2.53;100.00
40171;BME280;37650;52.790;18.268;2023-02-23T04:15:29;100800.88;;;-2.52;100.00
40171;BME280;37650;52.790;18.268;2023-02-23T04:18:52;100801.23;;;-2.51;100.00
40171;BME280;37650;52.790;18.268;2023-02-23T04:22:13;100800.03;;;-2.50;100.00
40171;BME280;37650;52.790;18.268;2023-02-23T04:25:34;100800.73;;;-2.50;100.00
40171;BME280;37650;52.790;18.268;2023-02-23T04:28:56;100800.37;;;-2.51;100.00
40171;BME280;37650;52.790;18.268;2023-02-23T04:32:18;100795.77;;;-2.49;100.00
40171;BME280;37650;52.790;18.268;2023-02-23T04:35:41;100792.23;;;-2.46;100.00
40171;BME280;37650;52.790;18.268;2023-02-23T04:39:02;100789.28;;;-2.48;100.00
40171;BME280;37650;52.790;18.268;2023-02-23T04:42:23;100783.44;;;-2.48;100.00
40171;BME280;37650;52.790;18.268;2023-02-23T04:45:45;100781.23;;;-2.47;100.00
40171;BME280;37650;52.790;18.268;2023-02-23T04:49:06;100774.36;;;-2.46;100.00
40171;BME280;37650;52.790;18.268;2023-02-23T04:52:28;100774.70;;;-2.47;100.00
40171;BME280;37650;52.790;18.268;2023-02-23T04:55:49;100772.67;;;-2.44;100.00
40171;BME280;37650;52.790;18.268;2023-02-23T04:59:10;100773.05;;;-2.43;100.00
40171;BME280;37650;52.790;18.268;2023-02-23T05:02:32;100767.05;;;-2.43;100.00
40171;BME280;37650;52.790;18.268;2023-02-23T05:05:53;100767.88;;;-2.44;100.00
40171;BME280;37650;52.790;18.268;2023-02-23T05:09:15;100762.77;;;-2.42;100.00
40171;BME280;37650;52.790;18.268;2023-02-23T05:12:37;100762.45;;;-2.41;100.00
40171;BME280;37650;52.790;18.268;2023-02-23T05:15:58;100760.55;;;-2.42;100.00
40171;BME280;37650;52.790;18.268;2023-02-23T05:19:19;100755.88;;;-2.43;100.00
40171;BME280;37650;52.790;18.268;2023-02-23T05:22:41;100755.05;;;-2.42;100.00
40171;BME280;37650;52.790;18.268;2023-02-23T05:26:06;100754.35;;;-2.42;100.00
40171;BME280;37650;52.790;18.268;2023-02-23T05:29:28;100753.16;;;-2.41;100.00
40171;BME280;37650;52.790;18.268;2023-02-23T05:32:49;100750.92;;;-2.42;100.00
40171;BME280;37650;52.790;18.268;2023-02-23T05:36:12;100746.28;;;-2.42;100.00
40171;BME280;37650;52.790;18.268;2023-02-23T05:39:35;100745.45;;;-2.41;100.00
40171;BME280;37650;52.790;18.268;2023-02-23T05:42:59;100746.85;;;-2.39;100.00
40171;BME280;37650;52.790;18.268;2023-02-23T05:46:23;100745.30;;;-2.40;100.00
40171;BME280;37650;52.790;18.268;2023-02-23T05:49:45;100747.86;;;-2.40;100.00
40171;BME280;37650;52.790;18.268;2023-02-23T05:53:07;100745.46;;;-2.40;100.00
40171;BME280;37650;52.790;18.268;2023-02-23T05:56:28;100745.82;;;-2.39;100.00
40171;BME280;37650;52.790;18.268;2023-02-23T05:59:49;100746.35;;;-2.38;100.00
40171;BME280;37650;52.790;18.268;2023-02-23T06:03:10;100746.38;;;-2.37;100.00
40171;BME280;37650;52.790;18.268;2023-02-23T06:06:31;100744.02;;;-2.35;100.00
40171;BME280;37650;52.790;18.268;2023-02-23T06:09:52;100747.67;;;-2.33;100.00
40171;BME280;37650;52.790;18.268;2023-02-23T06:13:14;100740.17;;;-2.30;100.00
40171;BME280;37650;52.790;18.268;2023-02-23T06:16:35;100739.88;;;-2.28;100.00
40171;BME280;37650;52.790;18.268;2023-02-23T06:19:56;100740.80;;;-2.25;100.00
40171;BME280;37650;52.790;18.268;2023-02-23T06:23:18;100736.60;;;-2.20;100.00
40171;BME280;37650;52.790;18.268;2023-02-23T06:26:40;100740.23;;;-2.18;100.00
40171;BME280;37650;52.790;18.268;2023-02-23T06:30:01;100736.36;;;-2.15;100.00
40171;BME280;37650;52.790;18.268;2023-02-23T06:33:22;100736.23;;;-2.12;100.00
40171;BME280;37650;52.790;18.268;2023-02-23T06:36:44;100736.66;;;-2.08;100.00
40171;BME280;37650;52.790;18.268;2023-02-23T06:40:06;100737.29;;;-2.02;100.00
40171;BME280;37650;52.790;18.268;2023-02-23T06:43:29;100738.63;;;-1.95;100.00
40171;BME280;37650;52.790;18.268;2023-02-23T06:46:50;100738.34;;;-1.92;100.00
40171;BME280;37650;52.790;18.268;2023-02-23T06:50:17;100739.61;;;-1.89;100.00
40171;BME280;37650;52.790;18.268;2023-02-23T06:53:38;100736.48;;;-1.82;100.00
40171;BME280;37650;52.790;18.268;2023-02-23T06:57:00;100731.94;;;-1.77;100.00
40171;BME280;37650;52.790;18.268;2023-02-23T07:00:21;100733.39;;;-1.72;100.00
40171;BME280;37650;52.790;18.268;2023-02-23T07:07:50;100730.34;;;-1.59;100.00
40171;BME280;37650;52.790;18.268;2023-02-23T07:11:13;100729.14;;;-1.51;100.00
40171;BME280;37650;52.790;18.268;2023-02-23T07:14:35;100725.62;;;-1.44;100.00
40171;BME280;37650;52.790;18.268;2023-02-23T07:17:59;100725.65;;;-1.32;100.00
40171;BME280;37650;52.790;18.268;2023-02-23T07:21:20;100717.15;;;-1.25;100.00
40171;BME280;37650;52.790;18.268;2023-02-23T07:24:42;100714.32;;;-1.20;100.00
40171;BME280;37650;52.790;18.268;2023-02-23T07:28:03;100715.52;;;-1.10;100.00
40171;BME280;37650;52.790;18.268;2023-02-23T07:31:24;100710.13;;;-1.02;100.00
40171;BME280;37650;52.790;18.268;2023-02-23T07:34:46;100707.57;;;-0.88;100.00
40171;BME280;37650;52.790;18.268;2023-02-23T07:38:07;100703.30;;;-0.73;100.00
40171;BME280;37650;52.790;18.268;2023-02-23T07:41:29;100701.16;;;-0.66;100.00
40171;BME280;37650;52.790;18.268;2023-02-23T07:44:51;100700.24;;;-0.57;100.00
40171;BME280;37650;52.790;18.268;2023-02-23T07:48:11;100698.17;;;-0.44;100.00
40171;BME280;37650;52.790;18.268;2023-02-23T07:51:32;100694.55;;;-0.29;99.96
40171;BME280;37650;52.790;18.268;2023-02-23T07:54:52;100689.77;;;-0.12;99.63
40171;BME280;37650;52.790;18.268;2023-02-23T07:58:14;100687.02;;;0.05;99.13
40171;BME280;37650;52.790;18.268;2023-02-23T08:01:34;100688.44;;;0.28;98.61
40171;BME280;37650;52.790;18.268;2023-02-23T08:04:56;100686.31;;;0.40;97.57
40171;BME280;37650;52.790;18.268;2023-02-23T08:08:17;100684.54;;;0.55;96.98
40171;BME280;37650;52.790;18.268;2023-02-23T08:11:38;100683.33;;;0.53;95.84
40171;BME280;37650;52.790;18.268;2023-02-23T08:15:00;100679.25;;;0.61;95.83
40171;BME280;37650;52.790;18.268;2023-02-23T08:22:29;100672.11;;;1.00;94.56
40171;BME280;37650;52.790;18.268;2023-02-23T08:25:52;100670.27;;;1.10;92.98
40171;BME280;37650;52.790;18.268;2023-02-23T08:29:14;100665.61;;;1.14;92.76
40171;BME280;37650;52.790;18.268;2023-02-23T08:32:36;100668.48;;;1.32;92.55
40171;BME280;37650;52.790;18.268;2023-02-23T08:35:58;100660.19;;;1.74;92.10
40171;BME280;37650;52.790;18.268;2023-02-23T08:39:22;100659.55;;;1.97;89.16
40171;BME280;37650;52.790;18.268;2023-02-23T08:42:43;100660.62;;;2.08;88.10
40171;BME280;37650;52.790;18.268;2023-02-23T08:46:05;100648.89;;;2.36;87.79
40171;BME280;37650;52.790;18.268;2023-02-23T08:49:27;100646.63;;;2.63;86.24
40171;BME280;37650;52.790;18.268;2023-02-23T08:52:47;100640.35;;;2.92;84.32
40171;BME280;37650;52.790;18.268;2023-02-23T08:56:09;100637.67;;;3.22;83.59
40171;BME280;37650;52.790;18.268;2023-02-23T08:59:31;100631.73;;;3.75;81.58
40171;BME280;37650;52.790;18.268;2023-02-23T09:02:52;100626.65;;;4.36;79.78
40171;BME280;37650;52.790;18.268;2023-02-23T09:06:17;100623.62;;;5.01;77.94
40171;BME280;37650;52.790;18.268;2023-02-23T09:09:39;100614.56;;;5.46;75.57
40171;BME280;37650;52.790;18.268;2023-02-23T09:13:00;100616.59;;;5.65;74.49
40171;BME280;37650;52.790;18.268;2023-02-23T09:16:23;100606.14;;;6.27;73.06
40171;BME280;37650;52.790;18.268;2023-02-23T09:19:44;100602.77;;;6.62;69.71
40171;BME280;37650;52.790;18.268;2023-02-23T09:23:05;100597.48;;;6.45;66.68
40171;BME280;37650;52.790;18.268;2023-02-23T09:26:26;100593.95;;;6.16;66.14
40171;BME280;37650;52.790;18.268;2023-02-23T09:29:48;100588.66;;;6.09;66.82
40171;BME280;37650;52.790;18.268;2023-02-23T09:33:09;100588.29;;;6.21;69.41
40171;BME280;37650;52.790;18.268;2023-02-23T09:36:31;100585.25;;;6.57;67.11
40171;BME280;37650;52.790;18.268;2023-02-23T09:39:52;100579.33;;;6.37;66.06
40171;BME280;37650;52.790;18.268;2023-02-23T09:46:52;100563.31;;;7.53;65.08
40171;BME280;37650;52.790;18.268;2023-02-23T09:50:27;100559.55;;;8.26;63.83
40171;BME280;37650;52.790;18.268;2023-02-23T09:53:55;100556.10;;;8.45;61.16
40171;BME280;37650;52.790;18.268;2023-02-23T09:57:22;100556.58;;;8.60;59.45
40171;BME280;37650;52.790;18.268;2023-02-23T10:00:49;100556.20;;;8.61;60.14
40171;BME280;37650;52.790;18.268;2023-02-23T10:04:25;100554.66;;;9.17;60.22
40171;BME280;37650;52.790;18.268;2023-02-23T10:08:00;100553.98;;;9.52;57.21
40171;BME280;37650;52.790;18.268;2023-02-23T10:11:32;100551.38;;;9.03;55.61
40171;BME280;37650;52.790;18.268;2023-02-23T10:22:10;100542.56;;;9.24;56.03
40171;BME280;37650;52.790;18.268;2023-02-23T10:25:39;100538.55;;;9.11;55.06
40171;BME280;37650;52.790;18.268;2023-02-23T10:29:02;100536.02;;;8.76;56.98
40171;BME280;37650;52.790;18.268;2023-02-23T10:35:59;100532.66;;;9.15;56.75
40171;BME280;37650;52.790;18.268;2023-02-23T10:39:21;100530.30;;;9.06;56.70
40171;BME280;37650;52.790;18.268;2023-02-23T10:42:43;100532.33;;;9.27;56.93
40171;BME280;37650;52.790;18.268;2023-02-23T10:46:05;100530.04;;;9.15;56.25
40171;BME280;37650;52.790;18.268;2023-02-23T10:49:54;100531.08;;;8.65;55.74
40171;BME280;37650;52.790;18.268;2023-02-23T10:53:22;100521.00;;;8.08;57.30
40171;BME280;37650;52.790;18.268;2023-02-23T10:56:45;100515.38;;;8.23;58.26
40171;BME280;37650;52.790;18.268;2023-02-23T11:03:38;100502.17;;;7.77;58.74
40171;BME280;37650;52.790;18.268;2023-02-23T11:10:31;100493.91;;;8.22;58.53
40171;BME280;37650;52.790;18.268;2023-02-23T11:13:55;100487.59;;;8.63;57.96
40171;BME280;37650;52.790;18.268;2023-02-23T11:17:31;100481.27;;;9.42;57.38
40171;BME280;37650;52.790;18.268;2023-02-23T11:20:54;100472.50;;;10.39;55.61
40171;BME280;37650;52.790;18.268;2023-02-23T11:27:47;100459.36;;;11.19;52.05
40171;BME280;37650;52.790;18.268;2023-02-23T11:31:15;100456.02;;;11.20;51.41
40171;BME280;37650;52.790;18.268;2023-02-23T11:34:37;100457.55;;;11.03;52.48
40171;BME280;37650;52.790;18.268;2023-02-23T11:38:22;100454.19;;;11.53;51.34
40171;BME280;37650;52.790;18.268;2023-02-23T11:41:44;100451.55;;;11.49;51.04
40171;BME280;37650;52.790;18.268;2023-02-23T11:45:16;100445.31;;;11.69;50.99
40171;BME280;37650;52.790;18.268;2023-02-23T11:52:15;100431.94;;;13.06;49.33
40171;BME280;37650;52.790;18.268;2023-02-23T11:55:37;100426.19;;;13.64;48.96
40171;BME280;37650;52.790;18.268;2023-02-23T11:59:03;100419.36;;;13.99;46.12
40171;BME280;37650;52.790;18.268;2023-02-23T12:02:48;100414.41;;;14.20;45.49
40171;BME280;37650;52.790;18.268;2023-02-23T12:06:11;100415.22;;;14.82;46.02
40171;BME280;37650;52.790;18.268;2023-02-23T12:09:48;100412.84;;;15.47;45.06
40171;BME280;37650;52.790;18.268;2023-02-23T12:13:29;100409.38;;;15.61;43.60
40171;BME280;37650;52.790;18.268;2023-02-23T12:17:13;100406.79;;;15.73;42.75
40171;BME280;37650;52.790;18.268;2023-02-23T12:20:41;100396.59;;;15.40;41.42
40171;BME280;37650;52.790;18.268;2023-02-23T12:24:28;100389.98;;;15.75;42.71
40171;BME280;37650;52.790;18.268;2023-02-23T12:28:22;100380.38;;;16.03;40.31
40171;BME280;37650;52.790;18.268;2023-02-23T12:31:57;100375.48;;;15.76;41.32
40171;BME280;37650;52.790;18.268;2023-02-23T12:36:00;100371.24;;;15.42;40.16
40171;BME280;37650;52.790;18.268;2023-02-23T12:39:30;100359.65;;;15.43;41.28
40171;BME280;37650;52.790;18.268;2023-02-23T12:43:13;100357.48;;;15.29;41.90
40171;BME280;37650;52.790;18.268;2023-02-23T12:46:40;100359.95;;;15.35;42.37
40171;BME280;37650;52.790;18.268;2023-02-23T12:50:30;100358.29;;;15.05;42.32
40171;BME280;37650;52.790;18.268;2023-02-23T12:53:53;100357.93;;;13.86;43.53
40171;BME280;37650;52.790;18.268;2023-02-23T12:57:56;100350.96;;;12.91;44.39
40171;BME280;37650;52.790;18.268;2023-02-23T13:05:30;100331.57;;;12.19;46.87
40171;BME280;37650;52.790;18.268;2023-02-23T13:16:17;100319.17;;;10.26;50.74
40171;BME280;37650;52.790;18.268;2023-02-23T13:19:51;100311.79;;;9.58;53.21
40171;BME280;37650;52.790;18.268;2023-02-23T13:27:14;100297.92;;;9.22;55.04
40171;BME280;37650;52.790;18.268;2023-02-23T13:30:38;100290.15;;;8.64;56.75
40171;BME280;37650;52.790;18.268;2023-02-23T13:34:15;100290.63;;;8.43;58.24
40171;BME280;37650;52.790;18.268;2023-02-23T13:37:50;100284.80;;;8.73;59.03
40171;BME280;37650;52.790;18.268;2023-02-23T13:41:26;100284.30;;;8.72;58.95
40171;BME280;37650;52.790;18.268;2023-02-23T13:48:54;100261.30;;;8.04;61.67
40171;BME280;37650;52.790;18.268;2023-02-23T13:52:30;100252.36;;;7.56;63.67
40171;BME280;37650;52.790;18.268;2023-02-23T13:55:57;100248.64;;;7.24;64.68
40171;BME280;37650;52.790;18.268;2023-02-23T13:59:22;100255.71;;;6.85;66.45
40171;BME280;37650;52.790;18.268;2023-02-23T14:02:46;100258.34;;;6.62;67.91
40171;BME280;37650;52.790;18.268;2023-02-23T14:06:11;100263.95;;;6.30;69.55
40171;BME280;37650;52.790;18.268;2023-02-23T14:09:37;100261.79;;;6.08;71.12
40171;BME280;37650;52.790;18.268;2023-02-23T14:16:27;100251.08;;;5.96;72.16
40171;BME280;37650;52.790;18.268;2023-02-23T14:23:28;100250.79;;;5.82;73.55
40171;BME280;37650;52.790;18.268;2023-02-23T14:30:26;100242.98;;;5.81;74.29
40171;BME280;37650;52.790;18.268;2023-02-23T14:33:51;100236.67;;;5.74;74.62
40171;BME280;37650;52.790;18.268;2023-02-23T14:40:58;100231.19;;;5.61;76.37
40171;BME280;37650;52.790;18.268;2023-02-23T14:44:30;100227.05;;;5.60;76.72
40171;BME280;37650;52.790;18.268;2023-02-23T14:48:00;100225.56;;;5.55;76.48
40171;BME280;37650;52.790;18.268;2023-02-23T14:51:45;100227.48;;;5.45;77.46
40171;BME280;37650;52.790;18.268;2023-02-23T14:58:32;100220.73;;;5.34;79.24
40171;BME280;37650;52.790;18.268;2023-02-23T15:01:55;100217.51;;;5.30;80.03
40171;BME280;37650;52.790;18.268;2023-02-23T15:05:22;100216.73;;;5.24;81.56
40171;BME280;37650;52.790;18.268;2023-02-23T15:08:44;100208.80;;;5.21;82.23
40171;BME280;37650;52.790;18.268;2023-02-23T15:12:15;100206.23;;;5.19;82.75
40171;BME280;37650;52.790;18.268;2023-02-23T15:15:43;100203.46;;;5.18;83.09
40171;BME280;37650;52.790;18.268;2023-02-23T15:19:32;100198.45;;;5.16;83.04
40171;BME280;37650;52.790;18.268;2023-02-23T15:22:55;100193.82;;;5.12;83.05
40171;BME280;37650;52.790;18.268;2023-02-23T15:26:32;100192.14;;;5.09;83.57
40171;BME280;37650;52.790;18.268;2023-02-23T15:29:54;100186.27;;;5.07;83.61
40171;BME280;37650;52.790;18.268;2023-02-23T15:33:17;100179.73;;;5.03;84.14
40171;BME280;37650;52.790;18.268;2023-02-23T15:36:58;100168.54;;;4.97;84.91
40171;BME280;37650;52.790;18.268;2023-02-23T15:40:23;100163.98;;;4.90;85.13
40171;BME280;37650;52.790;18.268;2023-02-23T15:43:46;100161.44;;;4.86;85.90
40171;BME280;37650;52.790;18.268;2023-02-23T15:47:21;100158.92;;;4.81;86.36
40171;BME280;37650;52.790;18.268;2023-02-23T15:50:51;100151.96;;;4.71;87.41
40171;BME280;37650;52.790;18.268;2023-02-23T15:54:35;100150.44;;;4.69;88.12
40171;BME280;37650;52.790;18.268;2023-02-23T15:58:00;100148.19;;;4.69;87.99
40171;BME280;37650;52.790;18.268;2023-02-23T16:01:26;100148.19;;;4.68;88.53
40171;BME280;37650;52.790;18.268;2023-02-23T16:04:48;100141.14;;;4.63;89.25
40171;BME280;37650;52.790;18.268;2023-02-23T16:08:22;100140.12;;;4.62;90.02
40171;BME280;37650;52.790;18.268;2023-02-23T16:11:47;100133.48;;;4.64;90.37
40171;BME280;37650;52.790;18.268;2023-02-23T16:15:31;100135.95;;;4.62;90.75
40171;BME280;37650;52.790;18.268;2023-02-23T16:18:58;100137.68;;;4.63;91.35
40171;BME280;37650;52.790;18.268;2023-02-23T16:22:25;100135.88;;;4.65;91.09
40171;BME280;37650;52.790;18.268;2023-02-23T16:25:52;100134.70;;;4.64;91.81
40171;BME280;37650;52.790;18.268;2023-02-23T16:29:19;100135.60;;;4.62;92.49
40171;BME280;37650;52.790;18.268;2023-02-23T16:32:43;100133.48;;;4.64;92.91
40171;BME280;37650;52.790;18.268;2023-02-23T16:39:36;100129.31;;;4.64;93.69
40171;BME280;37650;52.790;18.268;2023-02-23T16:42:57;100126.55;;;4.63;94.24
40171;BME280;37650;52.790;18.268;2023-02-23T16:46:23;100120.64;;;4.63;94.43
40171;BME280;37650;52.790;18.268;2023-02-23T16:49:44;100121.00;;;4.62;94.56
40171;BME280;37650;52.790;18.268;2023-02-23T16:53:07;100116.84;;;4.61;94.33
40171;BME280;37650;52.790;18.268;2023-02-23T16:56:32;100112.55;;;4.58;95.01
40171;BME280;37650;52.790;18.268;2023-02-23T16:59:56;100113.11;;;4.57;95.63
40171;BME280;37650;52.790;18.268;2023-02-23T17:03:23;100112.41;;;4.57;96.17
40171;BME280;37650;52.790;18.268;2023-02-23T17:06:45;100113.96;;;4.58;95.92
40171;BME280;37650;52.790;18.268;2023-02-23T17:10:18;100108.76;;;4.58;95.88
40171;BME280;37650;52.790;18.268;2023-02-23T17:13:45;100109.44;;;4.58;96.15
40171;BME280;37650;52.790;18.268;2023-02-23T17:17:14;100105.95;;;4.59;96.62
40171;BME280;37650;52.790;18.268;2023-02-23T17:20:37;100099.84;;;4.60;96.60
40171;BME280;37650;52.790;18.268;2023-02-23T17:23:59;100098.31;;;4.58;96.82
40171;BME280;37650;52.790;18.268;2023-02-23T17:27:24;100096.42;;;4.58;97.35
40171;BME280;37650;52.790;18.268;2023-02-23T17:30:46;100095.51;;;4.59;97.54
40171;BME280;37650;52.790;18.268;2023-02-23T17:34:08;100088.70;;;4.61;97.45
40171;BME280;37650;52.790;18.268;2023-02-23T17:37:30;100077.29;;;4.59;97.61
40171;BME280;37650;52.790;18.268;2023-02-23T17:40:53;100076.45;;;4.57;98.70
40171;BME280;37650;52.790;18.268;2023-02-23T17:44:16;100068.80;;;4.57;98.49
40171;BME280;37650;52.790;18.268;2023-02-23T17:47:38;100063.44;;;4.56;98.76
40171;BME280;37650;52.790;18.268;2023-02-23T17:51:04;100057.07;;;4.53;98.94
40171;BME280;37650;52.790;18.268;2023-02-23T17:54:28;100048.77;;;4.50;99.41
40171;BME280;37650;52.790;18.268;2023-02-23T17:57:51;100046.16;;;4.51;99.96
40171;BME280;37650;52.790;18.268;2023-02-23T18:01:14;100041.27;;;4.53;100.00
40171;BME280;37650;52.790;18.268;2023-02-23T18:04:39;100032.88;;;4.55;100.00
40171;BME280;37650;52.790;18.268;2023-02-23T18:08:01;100030.95;;;4.55;100.00
40171;BME280;37650;52.790;18.268;2023-02-23T18:11:24;100031.63;;;4.57;100.00
40171;BME280;37650;52.790;18.268;2023-02-23T18:14:47;100031.40;;;4.60;100.00
40171;BME280;37650;52.790;18.268;2023-02-23T18:18:09;100029.11;;;4.62;100.00
40171;BME280;37650;52.790;18.268;2023-02-23T18:21:30;100028.23;;;4.63;100.00
40171;BME280;37650;52.790;18.268;2023-02-23T18:24:56;100024.90;;;4.64;100.00
40171;BME280;37650;52.790;18.268;2023-02-23T18:28:22;100024.02;;;4.65;100.00
40171;BME280;37650;52.790;18.268;2023-02-23T18:31:43;100025.05;;;4.65;100.00
40171;BME280;37650;52.790;18.268;2023-02-23T18:35:07;100027.71;;;4.62;100.00
40171;BME280;37650;52.790;18.268;2023-02-23T18:38:30;100019.25;;;4.60;100.00
40171;BME280;37650;52.790;18.268;2023-02-23T18:41:52;100020.13;;;4.58;100.00
40171;BME280;37650;52.790;18.268;2023-02-23T18:45:15;100018.13;;;4.54;100.00
40171;BME280;37650;52.790;18.268;2023-02-23T18:48:38;100012.46;;;4.51;100.00
40171;BME280;37650;52.790;18.268;2023-02-23T18:52:02;100013.71;;;4.49;100.00
40171;BME280;37650;52.790;18.268;2023-02-23T18:55:29;100010.06;;;4.49;100.00
40171;BME280;37650;52.790;18.268;2023-02-23T18:58:58;100010.64;;;4.47;100.00
40171;BME280;37650;52.790;18.268;2023-02-23T19:02:21;100008.09;;;4.43;100.00
40171;BME280;37650;52.790;18.268;2023-02-23T19:05:49;100005.15;;;4.43;100.00
40171;BME280;37650;52.790;18.268;2023-02-23T19:09:14;99994.02;;;4.43;100.00
40171;BME280;37650;52.790;18.268;2023-02-23T19:12:41;99990.56;;;4.42;100.00
40171;BME280;37650;52.790;18.268;2023-02-23T19:16:07;99985.75;;;4.40;100.00
40171;BME280;37650;52.790;18.268;2023-02-23T19:19:29;99983.33;;;4.39;100.00
40171;BME280;37650;52.790;18.268;2023-02-23T19:22:54;99978.30;;;4.38;100.00
40171;BME280;37650;52.790;18.268;2023-02-23T19:26:20;99977.58;;;4.40;100.00
40171;BME280;37650;52.790;18.268;2023-02-23T19:29:45;99968.89;;;4.40;100.00
40171;BME280;37650;52.790;18.268;2023-02-23T19:33:08;99968.37;;;4.40;100.00